Time;durP1;ratioP1;P1;durP2;ratioP2;P2;SDS_P1;SDS_P2;PMS_P1;PMS_P2;Temp;Humidity;BMP_temperature;BMP_pressure;BME280_temperature;BME280_humidity;BME280_pressure;Samples;Min_cycle;Max_cycle;Signal;HPM_P1;HPM_P2
2022/02/23 00:00:42;;;;;;;7.55;3.65;;;;;;;;;;5116190;28;20304;-68
2022/02/23 00:03:10;;;;;;;6.13;3.88;;;;;;;;;;5116420;28;20195;-68
2022/02/23 00:05:37;;;;;;;13.38;3.60;;;;;;;;;;5115779;28;20217;-67
2022/02/23 00:08:05;;;;;;;8.27;3.15;;;;;;;;;;5115822;28;20308;-67
2022/02/23 00:10:32;;;;;;;18.00;4.28;;;;;;;;;;5115788;28;20334;-67
2022/02/23 00:12:59;;;;;;;11.35;4.90;;;;;;;;;;5115719;28;20193;-68
2022/02/23 00:15:28;;;;;;;18.95;6.10;;;;;;;;;;5115622;28;20197;-68
2022/02/23 00:17:55;;;;;;;21.08;4.95;;;;;;;;;;5115616;28;20241;-68
2022/02/23 00:20:23;;;;;;;20.73;3.80;;;;;;;;;;5115388;28;20706;-68
2022/02/23 00:22:50;;;;;;;10.82;3.70;;;;;;;;;;5115214;28;20191;-68
2022/02/23 00:25:17;;;;;;;9.00;2.88;;;;;;;;;;5115261;28;20241;-67
2022/02/23 00:27:45;;;;;;;21.58;4.68;;;;;;;;;;5115408;28;20230;-68
2022/02/23 00:30:12;;;;;;;20.30;3.80;;;;;;;;;;5115661;28;20286;-68
2022/02/23 00:32:41;;;;;;;8.70;3.03;;;;;;;;;;5115629;28;20275;-67
2022/02/23 00:35:08;;;;;;;14.85;3.90;;;;;;;;;;5115467;28;20203;-67
2022/02/23 00:37:36;;;;;;;13.40;4.75;;;;;;;;;;5115223;28;20283;-68
2022/02/23 00:40:03;;;;;;;13.18;4.57;;;;;;;;;;5115132;28;20242;-66
2022/02/23 00:42:31;;;;;;;11.20;3.88;;;;;;;;;;5115076;28;20344;-67
2022/02/23 00:44:58;;;;;;;14.32;4.13;;;;;;;;;;5115253;28;20225;-68
2022/02/23 00:47:25;;;;;;;15.00;3.97;;;;;;;;;;5115001;28;20580;-68
2022/02/23 00:49:54;;;;;;;19.85;4.15;;;;;;;;;;5114704;28;20237;-67
2022/02/23 00:52:21;;;;;;;11.73;3.50;;;;;;;;;;5114946;28;20191;-67
2022/02/23 00:54:48;;;;;;;14.43;4.20;;;;;;;;;;5115404;28;20296;-67
2022/02/23 00:57:15;;;;;;;24.02;4.10;;;;;;;;;;5114452;28;20297;-68
2022/02/23 00:59:44;;;;;;;15.45;4.45;;;;;;;;;;5114473;28;20200;-68
2022/02/23 01:02:11;;;;;;;17.42;3.97;;;;;;;;;;5114758;28;20203;-67
2022/02/23 01:04:39;;;;;;;18.63;4.45;;;;;;;;;;5114112;28;20305;-68
2022/02/23 01:07:10;;;;;;;9.73;4.40;;;;;;;;;;5114125;28;20195;-66
2022/02/23 01:09:37;;;;;;;10.10;4.10;;;;;;;;;;5114671;28;20219;-67
2022/02/23 01:12:05;;;;;;;24.52;5.40;;;;;;;;;;5114232;28;20208;-67
2022/02/23 01:14:32;;;;;;;23.00;4.60;;;;;;;;;;5114498;28;20235;-66
2022/02/23 01:16:59;;;;;;;17.23;6.05;;;;;;;;;;5114458;28;20547;-67
2022/02/23 01:19:26;;;;;;;13.68;4.05;;;;;;;;;;5114117;28;20282;-67
2022/02/23 01:21:54;;;;;;;14.82;3.78;;;;;;;;;;5114787;28;20196;-67
2022/02/23 01:24:22;;;;;;;14.48;4.40;;;;;;;;;;5113985;28;20238;-67
2022/02/23 01:26:49;;;;;;;14.40;3.95;;;;;;;;;;5114455;28;20265;-67
2022/02/23 01:29:17;;;;;;;24.08;5.93;;;;;;;;;;5114480;28;20192;-67
2022/02/23 01:31:44;;;;;;;13.25;3.63;;;;;;;;;;5114400;28;20238;-66
2022/02/23 01:34:11;;;;;;;14.50;4.70;;;;;;;;;;5114669;28;20198;-67
2022/02/23 01:36:38;;;;;;;20.17;5.07;;;;;;;;;;5113913;28;20195;-67
2022/02/23 01:39:06;;;;;;;19.20;4.90;;;;;;;;;;5114546;28;20192;-68
2022/02/23 01:41:34;;;;;;;14.23;5.07;;;;;;;;;;5113907;28;20205;-67
2022/02/23 01:44:01;;;;;;;9.95;3.78;;;;;;;;;;5113799;28;20246;-68
2022/02/23 01:46:30;;;;;;;20.02;4.32;;;;;;;;;;5114246;28;20219;-68
2022/02/23 01:48:57;;;;;;;17.23;4.65;;;;;;;;;;5114047;28;20193;-67
2022/02/23 01:51:25;;;;;;;14.05;3.97;;;;;;;;;;5114153;28;20226;-67
2022/02/23 01:53:52;;;;;;;7.68;3.70;;;;;;;;;;5114002;28;20208;-67
2022/02/23 01:56:19;;;;;;;22.92;5.28;;;;;;;;;;5114547;28;20198;-67
2022/02/23 01:58:48;;;;;;;16.25;5.10;;;;;;;;;;5113962;28;20613;-67
2022/02/23 02:01:15;;;;;;;18.15;6.35;;;;;;;;;;5114031;28;20207;-66
2022/02/23 02:03:42;;;;;;;16.10;5.70;;;;;;;;;;5113602;28;20192;-66
2022/02/23 02:06:10;;;;;;;14.48;3.92;;;;;;;;;;5113601;28;20222;-67
2022/02/23 02:08:37;;;;;;;10.38;4.63;;;;;;;;;;5114474;28;20233;-66
2022/02/23 02:11:04;;;;;;;20.85;5.38;;;;;;;;;;5114403;28;20199;-67
2022/02/23 02:13:31;;;;;;;14.73;3.72;;;;;;;;;;5113545;28;20683;-67
2022/02/23 02:16:00;;;;;;;11.73;3.58;;;;;;;;;;5114043;28;20288;-68
2022/02/23 02:18:27;;;;;;;17.95;4.80;;;;;;;;;;5117859;28;20276;-68
2022/02/23 02:20:54;;;;;;;12.65;3.58;;;;;;;;;;5118315;28;20288;-68
2022/02/23 02:23:23;;;;;;;18.50;4.47;;;;;;;;;;5117885;28;20272;-67
2022/02/23 02:25:50;;;;;;;16.42;4.40;;;;;;;;;;5114882;28;20270;-67
2022/02/23 02:28:17;;;;;;;13.95;4.28;;;;;;;;;;5116929;28;20319;-67
2022/02/23 02:30:45;;;;;;;16.38;5.20;;;;;;;;;;5117414;28;20238;-67
2022/02/23 02:33:12;;;;;;;14.38;4.05;;;;;;;;;;5117675;28;20244;-67
2022/02/23 02:35:39;;;;;;;16.05;4.70;;;;;;;;;;5117652;28;20610;-67
2022/02/23 02:38:07;;;;;;;18.25;4.05;;;;;;;;;;5117221;28;20236;-68
2022/02/23 02:40:36;;;;;;;14.45;3.65;;;;;;;;;;5117756;28;20203;-67
2022/02/23 02:43:07;;;;;;;17.27;4.03;;;;;;;;;;5117134;28;20233;-67
2022/02/23 02:45:34;;;;;;;8.60;3.50;;;;;;;;;;5117748;28;20217;-67
2022/02/23 02:48:01;;;;;;;18.25;3.53;;;;;;;;;;5117368;28;20195;-68
2022/02/23 02:50:29;;;;;;;9.00;5.38;;;;;;;;;;5116942;28;20563;-68
2022/02/23 02:52:57;;;;;;;12.23;4.35;;;;;;;;;;5117255;28;20195;-68
2022/02/23 02:55:25;;;;;;;13.82;3.47;;;;;;;;;;5117050;28;20353;-68
2022/02/23 02:57:53;;;;;;;12.65;3.20;;;;;;;;;;5117162;28;20271;-68
2022/02/23 03:00:21;;;;;;;19.08;4.15;;;;;;;;;;5116789;28;20281;-67
2022/02/23 03:02:48;;;;;;;13.15;4.50;;;;;;;;;;5117456;28;20205;-67
2022/02/23 03:05:15;;;;;;;9.77;3.67;;;;;;;;;;5117384;28;20247;-67
2022/02/23 03:07:42;;;;;;;14.73;4.25;;;;;;;;;;5116884;28;20725;-67
2022/02/23 03:10:10;;;;;;;13.77;4.95;;;;;;;;;;5116901;28;20287;-67
2022/02/23 03:12:37;;;;;;;17.40;4.82;;;;;;;;;;5116583;28;20199;-67
2022/02/23 03:15:07;;;;;;;12.77;4.15;;;;;;;;;;5116818;28;20293;-67
2022/02/23 03:17:34;;;;;;;14.65;4.75;;;;;;;;;;5116495;28;20195;-67
2022/02/23 03:20:01;;;;;;;20.77;3.78;;;;;;;;;;5116412;28;20190;-67
2022/02/23 03:22:28;;;;;;;11.38;4.28;;;;;;;;;;5116762;28;20612;-66
2022/02/23 03:24:56;;;;;;;19.13;4.45;;;;;;;;;;5116488;28;20233;-67
2022/02/23 03:27:23;;;;;;;20.08;4.10;;;;;;;;;;5115712;28;20204;-67
2022/02/23 03:29:50;;;;;;;14.25;3.65;;;;;;;;;;5116018;28;20716;-67
2022/02/23 03:32:18;;;;;;;11.88;3.40;;;;;;;;;;5116295;28;20286;-67
2022/02/23 03:34:46;;;;;;;14.02;3.70;;;;;;;;;;5116460;28;20207;-67
2022/02/23 03:37:13;;;;;;;15.30;4.70;;;;;;;;;;5116129;28;20226;-67
2022/02/23 03:39:40;;;;;;;14.27;5.45;;;;;;;;;;5116672;28;20279;-67
2022/02/23 03:42:08;;;;;;;18.48;3.53;;;;;;;;;;5116005;28;20227;-67
2022/02/23 03:44:35;;;;;;;7.30;3.60;;;;;;;;;;5116288;28;20198;-68
2022/02/23 03:47:02;;;;;;;13.10;4.40;;;;;;;;;;5115853;28;20225;-67
2022/02/23 03:49:31;;;;;;;15.65;4.22;;;;;;;;;;5116778;28;20200;-67
2022/02/23 03:51:58;;;;;;;13.20;4.10;;;;;;;;;;5116619;28;20282;-67
2022/02/23 03:54:25;;;;;;;20.23;3.80;;;;;;;;;;5115811;28;20290;-67
2022/02/23 03:56:52;;;;;;;14.52;3.60;;;;;;;;;;5116392;28;20194;-68
2022/02/23 03:59:19;;;;;;;11.13;3.90;;;;;;;;;;5116362;28;20189;-69
2022/02/23 04:01:47;;;;;;;32.28;4.03;;;;;;;;;;5115989;28;20603;-67
2022/02/23 04:04:16;;;;;;;16.85;4.10;;;;;;;;;;5115901;28;20282;-67
2022/02/23 04:06:45;;;;;;;20.83;4.40;;;;;;;;;;5116110;28;20258;-67
2022/02/23 04:09:12;;;;;;;19.90;3.92;;;;;;;;;;5115759;28;20195;-66
2022/02/23 04:11:40;;;;;;;25.20;4.18;;;;;;;;;;5115721;28;20191;-66
2022/02/23 04:14:07;;;;;;;26.10;4.57;;;;;;;;;;5115351;28;20285;-67
2022/02/23 04:16:35;;;;;;;5.88;2.75;;;;;;;;;;5116202;28;20197;-68
2022/02/23 04:19:02;;;;;;;21.95;5.68;;;;;;;;;;5115582;28;20281;-67
2022/02/23 04:21:30;;;;;;;8.85;3.10;;;;;;;;;;5115229;28;20190;-67
2022/02/23 04:23:58;;;;;;;26.38;5.00;;;;;;;;;;5115188;28;20237;-67
2022/02/23 04:26:26;;;;;;;14.68;3.90;;;;;;;;;;5115513;28;20224;-67
2022/02/23 04:28:53;;;;;;;9.68;3.92;;;;;;;;;;5115537;28;20236;-67
2022/02/23 04:31:20;;;;;;;12.43;5.03;;;;;;;;;;5115918;28;20232;-67
2022/02/23 04:33:47;;;;;;;14.38;3.58;;;;;;;;;;5114978;28;20230;-68
2022/02/23 04:36:15;;;;;;;14.20;4.18;;;;;;;;;;5115252;28;20204;-68
2022/02/23 04:38:42;;;;;;;15.80;4.03;;;;;;;;;;5114817;28;20285;-66
2022/02/23 04:41:10;;;;;;;11.27;4.15;;;;;;;;;;5114983;28;20284;-67
2022/02/23 04:43:38;;;;;;;14.27;3.80;;;;;;;;;;5115740;28;20196;-66
2022/02/23 04:46:07;;;;;;;13.40;3.75;;;;;;;;;;5114631;28;20308;-68
2022/02/23 04:48:35;;;;;;;12.57;3.10;;;;;;;;;;5115806;28;20205;-67
2022/02/23 04:51:03;;;;;;;12.93;3.50;;;;;;;;;;5114984;28;20199;-67
2022/02/23 04:53:30;;;;;;;14.50;3.75;;;;;;;;;;5114582;28;20240;-67
2022/02/23 04:55:58;;;;;;;10.23;3.70;;;;;;;;;;5114412;28;20201;-67
2022/02/23 04:58:27;;;;;;;19.52;4.63;;;;;;;;;;5114522;28;20655;-67
2022/02/23 05:00:54;;;;;;;9.23;4.03;;;;;;;;;;5114883;28;20281;-66
2022/02/23 05:03:21;;;;;;;14.43;4.25;;;;;;;;;;5113221;28;20222;-66
2022/02/23 05:05:49;;;;;;;13.52;3.88;;;;;;;;;;5114971;28;20304;-67
2022/02/23 05:08:17;;;;;;;11.00;3.90;;;;;;;;;;5115030;28;20218;-67
2022/02/23 05:10:44;;;;;;;18.92;4.40;;;;;;;;;;5114884;28;20193;-67
2022/02/23 05:13:12;;;;;;;13.32;5.15;;;;;;;;;;5114630;28;20193;-67
2022/02/23 05:15:41;;;;;;;16.10;4.43;;;;;;;;;;5114809;28;20199;-67
2022/02/23 05:18:08;;;;;;;17.65;4.38;;;;;;;;;;5114498;28;20296;-67
2022/02/23 05:20:36;;;;;;;15.88;4.65;;;;;;;;;;5114665;28;20197;-67
2022/02/23 05:23:05;;;;;;;11.82;4.05;;;;;;;;;;5114515;28;20193;-66
2022/02/23 05:25:32;;;;;;;25.98;6.22;;;;;;;;;;5114368;28;20201;-67
2022/02/23 05:28:00;;;;;;;19.20;3.88;;;;;;;;;;5114134;28;20710;-67
2022/02/23 05:30:27;;;;;;;12.45;4.28;;;;;;;;;;5114015;28;20236;-67
2022/02/23 05:32:56;;;;;;;19.08;4.53;;;;;;;;;;5113958;28;20239;-68
2022/02/23 05:35:23;;;;;;;12.43;4.18;;;;;;;;;;5113879;28;20222;-68
2022/02/23 05:37:51;;;;;;;14.75;4.13;;;;;;;;;;5114235;28;20193;-69
2022/02/23 05:40:18;;;;;;;16.73;4.00;;;;;;;;;;5114210;28;20194;-67
2022/02/23 05:42:45;;;;;;;22.35;4.95;;;;;;;;;;5114244;28;20254;-68
2022/02/23 05:45:13;;;;;;;10.00;3.83;;;;;;;;;;5113834;28;20276;-67
2022/02/23 05:47:40;;;;;;;18.02;4.20;;;;;;;;;;5113679;28;20225;-67
2022/02/23 05:50:09;;;;;;;18.30;4.93;;;;;;;;;;5113838;28;20681;-67
2022/02/23 05:52:36;;;;;;;13.65;4.03;;;;;;;;;;5113205;28;20289;-68
2022/02/23 05:55:04;;;;;;;10.68;3.85;;;;;;;;;;5114001;28;20626;-68
2022/02/23 05:57:32;;;;;;;12.20;4.47;;;;;;;;;;5114524;28;20232;-68
2022/02/23 05:59:59;;;;;;;14.27;4.32;;;;;;;;;;5113976;28;20226;-68
2022/02/23 06:02:26;;;;;;;14.63;4.35;;;;;;;;;;5114007;28;20201;-69
2022/02/23 06:04:54;;;;;;;16.90;4.70;;;;;;;;;;5113902;28;20198;-67
2022/02/23 06:07:22;;;;;;;19.75;4.22;;;;;;;;;;5113966;28;20569;-67
2022/02/23 06:09:53;;;;;;;15.10;4.95;;;;;;;;;;5114041;28;20247;-67
2022/02/23 06:12:20;;;;;;;10.07;4.43;;;;;;;;;;5113886;28;20190;-67
2022/02/23 06:14:47;;;;;;;23.67;4.72;;;;;;;;;;5114133;28;20550;-67
2022/02/23 06:17:15;;;;;;;11.13;3.65;;;;;;;;;;5113761;28;20232;-67
2022/02/23 06:19:42;;;;;;;12.73;4.43;;;;;;;;;;5113752;28;20575;-67
2022/02/23 06:22:09;;;;;;;16.95;5.32;;;;;;;;;;5113840;28;20192;-67
2022/02/23 06:24:38;;;;;;;13.63;4.35;;;;;;;;;;5114567;28;20199;-67
2022/02/23 06:27:05;;;;;;;10.38;4.47;;;;;;;;;;5113774;28;20307;-66
2022/02/23 06:29:32;;;;;;;7.75;3.60;;;;;;;;;;5113834;28;20267;-67
2022/02/23 06:32:03;;;;;;;18.80;4.55;;;;;;;;;;5113664;28;20277;-67
2022/02/23 06:34:30;;;;;;;19.98;5.00;;;;;;;;;;5113452;28;20649;-67
2022/02/23 06:37:02;;;;;;;19.67;4.60;;;;;;;;;;5113626;28;20244;-67
2022/02/23 06:39:29;;;;;;;11.40;4.18;;;;;;;;;;5113392;28;20633;-67
2022/02/23 06:41:58;;;;;;;15.98;4.22;;;;;;;;;;5113344;28;20197;-66
2022/02/23 06:44:25;;;;;;;18.55;5.95;;;;;;;;;;5113874;28;20703;-67
2022/02/23 06:46:52;;;;;;;16.23;4.40;;;;;;;;;;5113483;28;20368;-67
2022/02/23 06:49:20;;;;;;;14.10;3.83;;;;;;;;;;5113152;28;20675;-67
2022/02/23 06:51:48;;;;;;;14.60;4.82;;;;;;;;;;5113505;28;20290;-67
2022/02/23 06:54:16;;;;;;;20.92;4.35;;;;;;;;;;5113680;28;20197;-66
2022/02/23 06:56:43;;;;;;;21.45;6.00;;;;;;;;;;5112945;28;20230;-67
2022/02/23 06:59:12;;;;;;;20.45;4.20;;;;;;;;;;5113403;28;20197;-67
2022/02/23 07:01:43;;;;;;;13.43;4.15;;;;;;;;;;5113278;28;20383;-67
2022/02/23 07:04:10;;;;;;;13.98;4.95;;;;;;;;;;5115113;28;20182;-67
2022/02/23 07:06:38;;;;;;;15.38;5.82;;;;;;;;;;5116948;28;20233;-67
2022/02/23 07:09:05;;;;;;;9.38;3.45;;;;;;;;;;5116669;28;20228;-68
2022/02/23 07:11:34;;;;;;;11.30;4.80;;;;;;;;;;5116887;28;20240;-67
2022/02/23 07:14:03;;;;;;;15.18;4.05;;;;;;;;;;5116430;28;20652;-66
2022/02/23 07:16:32;;;;;;;19.40;5.75;;;;;;;;;;5116460;28;20229;-67
2022/02/23 07:18:59;;;;;;;13.13;4.45;;;;;;;;;;5116469;28;20570;-67
2022/02/23 07:21:27;;;;;;;18.10;4.30;;;;;;;;;;5117423;28;20271;-66
2022/02/23 07:23:54;;;;;;;10.05;4.75;;;;;;;;;;5116671;28;20193;-67
2022/02/23 07:26:21;;;;;;;17.27;5.85;;;;;;;;;;5116937;28;20562;-67
2022/02/23 07:28:49;;;;;;;18.73;4.75;;;;;;;;;;5116420;28;20237;-67
2022/02/23 07:31:18;;;;;;;23.65;4.63;;;;;;;;;;5116175;28;20285;-67
2022/02/23 07:33:47;;;;;;;29.83;5.30;;;;;;;;;;5116136;28;20284;-68
2022/02/23 07:36:15;;;;;;;17.75;4.65;;;;;;;;;;5116440;28;20646;-67
2022/02/23 07:38:43;;;;;;;18.30;4.45;;;;;;;;;;5116436;28;20268;-68
2022/02/23 07:41:11;;;;;;;18.85;4.43;;;;;;;;;;5116331;28;20199;-67
2022/02/23 07:43:39;;;;;;;17.90;5.07;;;;;;;;;;5116267;28;20198;-66
2022/02/23 07:46:06;;;;;;;21.33;4.38;;;;;;;;;;5116003;28;20658;-67
2022/02/23 07:48:33;;;;;;;18.15;4.18;;;;;;;;;;5116629;28;20285;-67
2022/02/23 07:51:04;;;;;;;16.58;4.10;;;;;;;;;;5116202;28;20266;-67
2022/02/23 07:53:31;;;;;;;11.25;4.70;;;;;;;;;;5116178;28;20611;-68
2022/02/23 07:55:59;;;;;;;13.35;5.13;;;;;;;;;;5116032;28;20200;-68
2022/02/23 07:58:26;;;;;;;18.55;6.80;;;;;;;;;;5115744;28;20657;-67
2022/02/23 08:00:53;;;;;;;22.65;6.07;;;;;;;;;;5115929;28;20194;-67
2022/02/23 08:03:21;;;;;;;18.70;4.35;;;;;;;;;;5116021;28;20207;-66
2022/02/23 08:05:49;;;;;;;17.35;5.05;;;;;;;;;;5115902;28;20347;-66
2022/02/23 08:08:19;;;;;;;11.85;4.25;;;;;;;;;;5115372;28;20307;-66
2022/02/23 08:10:46;;;;;;;13.93;4.60;;;;;;;;;;5116127;28;20205;-66
2022/02/23 08:13:15;;;;;;;12.43;4.72;;;;;;;;;;5115477;28;20294;-67
2022/02/23 08:21:34;;;;;;;18.50;4.75;;;;;;;;;;5029251;28;20206;-67
2022/02/23 08:24:04;;;;;;;15.90;5.18;;;;;;;;;;5091470;28;20191;-67
2022/02/23 08:26:31;;;;;;;9.18;4.05;;;;;;;;;;5115447;28;20192;-66
2022/02/23 08:28:59;;;;;;;10.20;4.00;;;;;;;;;;5115149;28;20228;-67
2022/02/23 08:31:27;;;;;;;19.25;4.38;;;;;;;;;;5115342;28;20190;-67
2022/02/23 08:33:54;;;;;;;17.27;5.50;;;;;;;;;;5114984;28;20279;-67
2022/02/23 08:36:21;;;;;;;12.18;4.55;;;;;;;;;;5115266;28;20277;-67
2022/02/23 08:38:48;;;;;;;15.38;5.10;;;;;;;;;;5115544;28;20195;-67
2022/02/23 08:41:19;;;;;;;19.08;5.07;;;;;;;;;;5115174;28;20276;-67
2022/02/23 08:43:46;;;;;;;15.75;5.18;;;;;;;;;;5115188;28;20179;-68
2022/02/23 08:46:13;;;;;;;11.75;4.22;;;;;;;;;;5114772;28;20199;-67
2022/02/23 08:48:41;;;;;;;6.78;4.05;;;;;;;;;;5114849;28;20241;-66
2022/02/23 08:51:08;;;;;;;15.90;4.88;;;;;;;;;;5114572;28;20274;-68
2022/02/23 08:53:35;;;;;;;11.82;5.22;;;;;;;;;;5114627;28;20199;-67
2022/02/23 08:56:03;;;;;;;9.68;4.10;;;;;;;;;;5114600;28;20191;-67
2022/02/23 08:58:31;;;;;;;12.30;4.30;;;;;;;;;;5114940;28;20284;-67
2022/02/23 09:00:58;;;;;;;17.40;4.70;;;;;;;;;;5114374;28;20191;-67
2022/02/23 09:03:26;;;;;;;17.17;5.20;;;;;;;;;;5115409;28;20196;-67
2022/02/23 09:05:53;;;;;;;10.35;4.50;;;;;;;;;;5114366;28;20195;-68
2022/02/23 09:08:20;;;;;;;10.48;5.45;;;;;;;;;;5114857;28;20578;-66
2022/02/23 09:10:48;;;;;;;17.92;6.40;;;;;;;;;;5114279;28;20242;-66
2022/02/23 09:13:15;;;;;;;15.85;4.05;;;;;;;;;;5114572;28;20278;-66
2022/02/23 09:15:44;;;;;;;19.50;5.18;;;;;;;;;;5113585;28;20195;-67
2022/02/23 09:18:11;;;;;;;14.80;5.25;;;;;;;;;;5114354;28;20230;-66
2022/02/23 09:20:38;;;;;;;12.98;4.75;;;;;;;;;;5113870;28;20712;-66
2022/02/23 09:23:05;;;;;;;14.02;4.85;;;;;;;;;;5114103;28;20198;-67
2022/02/23 09:25:33;;;;;;;12.00;4.32;;;;;;;;;;5113893;28;20201;-67
2022/02/23 09:28:00;;;;;;;10.80;3.80;;;;;;;;;;5113615;28;20269;-67
2022/02/23 09:30:27;;;;;;;10.15;4.63;;;;;;;;;;5114008;28;20279;-68
2022/02/23 09:32:56;;;;;;;12.75;4.07;;;;;;;;;;5114454;28;20199;-66
2022/02/23 09:35:25;;;;;;;7.80;3.80;;;;;;;;;;5113829;28;20196;-67
2022/02/23 09:37:53;;;;;;;13.25;5.03;;;;;;;;;;5113789;28;20210;-66
2022/02/23 09:40:20;;;;;;;10.80;4.82;;;;;;;;;;5113785;28;20289;-67
2022/02/23 09:42:48;;;;;;;11.75;4.65;;;;;;;;;;5114451;28;20277;-67
2022/02/23 09:45:15;;;;;;;12.77;4.72;;;;;;;;;;5113791;28;20198;-66
2022/02/23 09:47:43;;;;;;;15.07;5.10;;;;;;;;;;5114290;28;20285;-66
2022/02/23 09:50:18;;;;;;;26.60;4.72;;;;;;;;;;5113671;28;20230;-67
2022/02/23 09:52:45;;;;;;;8.27;3.88;;;;;;;;;;5114007;28;20191;-67
2022/02/23 09:55:13;;;;;;;11.85;4.90;;;;;;;;;;5113707;28;20252;-66
2022/02/23 09:57:41;;;;;;;14.90;4.88;;;;;;;;;;5113569;28;20202;-67
2022/02/23 10:00:09;;;;;;;13.82;5.22;;;;;;;;;;5113982;28;20195;-67
2022/02/23 10:02:36;;;;;;;14.73;4.80;;;;;;;;;;5113442;28;20196;-67
2022/02/23 10:05:04;;;;;;;12.30;3.80;;;;;;;;;;5114399;28;20193;-67
2022/02/23 10:07:37;;;;;;;18.35;4.80;;;;;;;;;;5113801;28;20621;-67
2022/02/23 10:10:07;;;;;;;10.40;4.25;;;;;;;;;;5114065;28;20191;-66
2022/02/23 10:12:35;;;;;;;11.02;4.93;;;;;;;;;;5113841;28;20196;-66
2022/02/23 10:15:07;;;;;;;14.50;4.40;;;;;;;;;;5113724;28;20197;-67
2022/02/23 10:17:38;;;;;;;12.38;4.65;;;;;;;;;;5113427;28;20287;-66
2022/02/23 10:20:06;;;;;;;14.95;4.75;;;;;;;;;;5114608;28;20199;-67
2022/02/23 10:22:45;;;;;;;11.57;4.22;;;;;;;;;;5113389;28;20235;-68
2022/02/23 10:25:12;;;;;;;12.80;4.63;;;;;;;;;;5113678;28;20197;-67
2022/02/23 10:27:40;;;;;;;10.10;3.50;;;;;;;;;;5113745;28;20273;-66
2022/02/23 10:30:08;;;;;;;13.00;5.10;;;;;;;;;;5113720;28;20272;-67
2022/02/23 10:32:35;;;;;;;12.52;4.20;;;;;;;;;;5113768;28;20192;-67
2022/02/23 10:35:04;;;;;;;13.13;5.13;;;;;;;;;;5113435;28;20260;-67
2022/02/23 10:37:31;;;;;;;12.38;4.25;;;;;;;;;;5114996;28;20204;-67
2022/02/23 10:40:01;;;;;;;11.60;4.70;;;;;;;;;;5117522;28;20553;-67
2022/02/23 10:42:29;;;;;;;13.23;4.25;;;;;;;;;;5117189;28;20293;-66
2022/02/23 10:44:57;;;;;;;11.23;3.85;;;;;;;;;;5117813;28;20246;-66
2022/02/23 10:47:26;;;;;;;12.27;4.70;;;;;;;;;;5117335;28;20201;-67
2022/02/23 10:50:03;;;;;;;8.32;4.68;;;;;;;;;;5117026;28;20196;-67
2022/02/23 10:52:31;;;;;;;9.52;4.25;;;;;;;;;;5117272;28;20239;-67
2022/02/23 10:55:14;;;;;;;13.20;4.45;;;;;;;;;;5117210;28;20525;-66
2022/02/23 10:57:43;;;;;;;15.52;5.60;;;;;;;;;;5117698;28;20185;-67
2022/02/23 11:00:14;;;;;;;9.50;4.60;;;;;;;;;;5117181;28;20306;-66
2022/02/23 11:02:47;;;;;;;14.02;5.70;;;;;;;;;;5116784;28;20236;-67
2022/02/23 11:05:14;;;;;;;20.63;5.20;;;;;;;;;;5116958;28;20188;-67
2022/02/23 11:07:44;;;;;;;25.73;6.20;;;;;;;;;;5117156;28;20285;-68
2022/02/23 11:10:14;;;;;;;10.27;3.97;;;;;;;;;;5116637;28;20195;-67
2022/02/23 11:12:44;;;;;;;10.52;5.45;;;;;;;;;;5116861;28;20223;-67
2022/02/23 11:15:12;;;;;;;13.05;4.85;;;;;;;;;;5117282;28;20188;-67
2022/02/23 11:17:40;;;;;;;13.30;4.75;;;;;;;;;;5117473;28;20710;-67
2022/02/23 11:20:12;;;;;;;10.57;4.80;;;;;;;;;;5117228;28;20196;-67
2022/02/23 11:22:39;;;;;;;9.30;3.75;;;;;;;;;;5117063;28;20263;-68
2022/02/23 11:25:08;;;;;;;8.38;3.78;;;;;;;;;;5117366;28;20195;-67
2022/02/23 11:27:38;;;;;;;12.93;4.30;;;;;;;;;;5116769;28;20247;-67
2022/02/23 11:30:07;;;;;;;9.10;4.30;;;;;;;;;;5116757;28;20190;-67
2022/02/23 11:32:39;;;;;;;12.80;4.38;;;;;;;;;;5116235;28;20722;-67
2022/02/23 11:35:07;;;;;;;6.30;3.65;;;;;;;;;;5116934;28;20187;-66
2022/02/23 11:37:36;;;;;;;9.52;3.65;;;;;;;;;;5116453;28;20269;-68
2022/02/23 11:40:03;;;;;;;7.73;3.30;;;;;;;;;;5116745;28;20204;-67
2022/02/23 11:42:34;;;;;;;8.15;3.70;;;;;;;;;;5116307;28;20438;-67
2022/02/23 11:51:10;;;;;;;6.95;2.97;;;;;;;;;;5115968;28;20226;-67
2022/02/23 11:53:38;;;;;;;11.33;4.77;;;;;;;;;;5116113;28;20189;-67
2022/02/23 11:58:57;;;;;;;5.25;3.13;;;;;;;;;;5115852;28;20234;-67
2022/02/23 12:01:24;;;;;;;12.00;4.10;;;;;;;;;;5115685;28;20246;-67
2022/02/23 12:04:17;;;;;;;16.07;3.80;;;;;;;;;;5115859;28;20197;-67
2022/02/23 12:07:03;;;;;;;7.90;3.80;;;;;;;;;;5096937;28;20817;-69
2022/02/23 12:12:52;;;;;;;5.82;2.90;;;;;;;;;;5091215;27;20552;-67
2022/02/23 12:15:27;;;;;;;8.00;3.67;;;;;;;;;;5091437;28;20186;-67
2022/02/23 12:17:59;;;;;;;5.03;2.67;;;;;;;;;;5090892;28;20223;-67
2022/02/23 12:20:46;;;;;;;15.75;3.92;;;;;;;;;;5090661;28;20203;-67
2022/02/23 12:23:28;;;;;;;8.63;3.00;;;;;;;;;;5090626;28;20734;-67
2022/02/23 12:25:57;;;;;;;11.60;3.97;;;;;;;;;;5090727;28;20544;-67
2022/02/23 12:28:26;;;;;;;14.47;3.90;;;;;;;;;;5090476;28;20949;-67
2022/02/23 12:31:00;;;;;;;7.63;3.37;;;;;;;;;;5090957;28;20518;-67
2022/02/23 12:33:30;;;;;;;7.60;3.03;;;;;;;;;;5091003;28;20481;-67
2022/02/23 12:35:58;;;;;;;9.10;3.00;;;;;;;;;;5090276;28;20440;-67
2022/02/23 12:38:28;;;;;;;10.85;3.17;;;;;;;;;;5090801;28;20498;-66
2022/02/23 12:40:56;;;;;;;13.57;3.33;;;;;;;;;;5090576;28;20205;-66
2022/02/23 12:43:23;;;;;;;9.55;3.13;;;;;;;;;;5090568;28;20462;-67
2022/02/23 12:45:53;;;;;;;9.27;2.92;;;;;;;;;;5090715;28;20200;-67
2022/02/23 12:48:24;;;;;;;7.70;3.55;;;;;;;;;;5090491;28;20204;-67
2022/02/23 12:50:56;;;;;;;9.13;3.30;;;;;;;;;;5090565;28;20218;-67
2022/02/23 12:53:30;;;;;;;4.88;2.50;;;;;;;;;;5090499;28;20429;-67
2022/02/23 12:55:57;;;;;;;3.85;2.45;;;;;;;;;;5090632;28;20185;-68
2022/02/23 12:58:32;;;;;;;7.80;3.05;;;;;;;;;;5090558;28;20754;-68
2022/02/23 13:01:02;;;;;;;5.93;2.93;;;;;;;;;;5091861;28;20212;-68
2022/02/23 13:03:30;;;;;;;6.93;3.47;;;;;;;;;;5090884;28;20470;-67
2022/02/23 13:05:57;;;;;;;18.67;6.13;;;;;;;;;;5090977;28;20468;-67
2022/02/23 13:08:25;;;;;;;10.37;5.67;;;;;;;;;;5097600;28;20514;-67
2022/02/23 13:10:59;;;;;;;10.40;5.03;;;;;;;;;;5109782;28;20482;-68
2022/02/23 13:13:36;;;;;;;13.67;5.13;;;;;;;;;;5111819;28;20442;-68
2022/02/23 13:16:05;;;;;;;13.17;5.60;;;;;;;;;;5110749;28;20519;-68
2022/02/23 13:18:35;;;;;;;7.70;3.50;;;;;;;;;;5111027;28;20861;-69
2022/02/23 13:21:12;;;;;;;10.03;3.10;;;;;;;;;;5111430;28;20473;-68
2022/02/23 13:23:52;;;;;;;6.97;3.50;;;;;;;;;;5098857;28;20792;-68
2022/02/23 13:26:20;;;;;;;9.70;3.60;;;;;;;;;;5097556;28;20467;-67
2022/02/23 13:29:01;;;;;;;5.03;2.57;;;;;;;;;;5097730;28;20444;-68
2022/02/23 13:31:37;;;;;;;12.53;3.80;;;;;;;;;;5097590;28;20613;-68
2022/02/23 13:34:17;;;;;;;6.17;2.83;;;;;;;;;;5096845;28;20468;-68
2022/02/23 13:36:45;;;;;;;8.97;3.13;;;;;;;;;;5098148;28;20455;-69
2022/02/23 13:39:20;;;;;;;5.70;2.47;;;;;;;;;;5096952;28;20444;-68
2022/02/23 13:41:59;;;;;;;7.07;2.50;;;;;;;;;;5097206;28;20490;-68
2022/02/23 13:44:27;;;;;;;5.40;4.03;;;;;;;;;;5097807;28;20511;-67
2022/02/23 13:46:59;;;;;;;3.63;1.93;;;;;;;;;;5097420;28;20435;-67
2022/02/23 13:49:26;;;;;;;7.33;2.73;;;;;;;;;;5097980;28;20427;-68
2022/02/23 13:51:56;;;;;;;4.93;2.17;;;;;;;;;;5098005;28;20511;-68
2022/02/23 13:54:23;;;;;;;4.63;1.90;;;;;;;;;;5096719;28;20436;-68
2022/02/23 13:56:50;;;;;;;5.30;2.33;;;;;;;;;;5096076;28;20475;-66
2022/02/23 13:59:19;;;;;;;5.43;2.30;;;;;;;;;;5096517;28;20531;-67
2022/02/23 14:02:13;;;;;;;9.30;2.50;;;;;;;;;;5096858;28;20865;-68
2022/02/23 14:04:43;;;;;;;6.53;3.00;;;;;;;;;;5060933;28;20539;-67
2022/02/23 14:07:12;;;;;;;14.23;3.00;;;;;;;;;;5096778;28;20987;-67
2022/02/23 14:09:40;;;;;;;6.07;2.40;;;;;;;;;;5096704;28;20485;-68
2022/02/23 14:12:11;;;;;;;6.93;2.30;;;;;;;;;;5095497;28;20491;-68
2022/02/23 14:14:40;;;;;;;5.77;2.17;;;;;;;;;;5094485;28;21001;-68
2022/02/23 14:17:20;;;;;;;5.97;2.10;;;;;;;;;;5094774;28;20440;-68
2022/02/23 14:19:49;;;;;;;5.70;3.40;;;;;;;;;;5094933;28;20455;-68
2022/02/23 14:22:19;;;;;;;6.87;2.40;;;;;;;;;;5094229;28;21012;-69
2022/02/23 14:24:56;;;;;;;4.63;2.40;;;;;;;;;;5094923;28;20437;-67
2022/02/23 14:27:27;;;;;;;3.70;2.30;;;;;;;;;;5095148;28;20461;-68
2022/02/23 14:29:54;;;;;;;4.03;1.93;;;;;;;;;;5095135;28;20436;-71
2022/02/23 14:32:25;;;;;;;5.80;2.33;;;;;;;;;;5094899;28;20562;-70
2022/02/23 14:34:56;;;;;;;5.73;2.00;;;;;;;;;;5093804;28;20452;-69
2022/02/23 14:37:24;;;;;;;5.63;2.20;;;;;;;;;;5094688;28;20507;-69
2022/02/23 14:39:52;;;;;;;7.03;3.40;;;;;;;;;;5094255;28;20483;-69
2022/02/23 14:42:19;;;;;;;5.00;2.50;;;;;;;;;;5093965;28;20436;-70
2022/02/23 14:44:46;;;;;;;4.80;2.20;;;;;;;;;;5094322;28;20456;-70
2022/02/23 14:47:14;;;;;;;5.07;2.77;;;;;;;;;;5094127;28;20436;-71
2022/02/23 14:49:43;;;;;;;4.53;2.20;;;;;;;;;;5094225;28;20451;-71
2022/02/23 14:52:11;;;;;;;3.53;2.20;;;;;;;;;;5093885;28;20536;-70
2022/02/23 14:54:39;;;;;;;4.33;1.80;;;;;;;;;;5094683;28;20557;-70
2022/02/23 14:57:08;;;;;;;3.93;2.13;;;;;;;;;;5093397;28;20928;-70
2022/02/23 14:59:37;;;;;;;5.70;2.20;;;;;;;;;;5093490;28;20449;-69